Terminal Aerodrome Forecast
Issued by NWS

Home | Current Version | Previous Version | Text Only | Print | Product List | Glossary On
Versions: 1 2 3 4 5 6 7 8 9 10 11 12 13 14 15 16 17 18 19 20 21 22 23 24 25 26 27 28 29 30 31 32 33 34 35 36 37 38
000
FTUS46 KLOX 231134
TAFOXR
TAF
KOXR 231134Z 2312/2412 26011KT P6SM VCSH SCT010 SCT025 BKN060
     FM231400 24012KT P6SM VCTS SCT015CB OVC040
     FM240000 26010KT P6SM -SHRA BKN035
     FM240300 VRB03KT P6SM BKN050
     FM240800 VRB03KT P6SM BKN100=

USA.gov is the U.S. government's official web portal to all federal, state and local government web resources and services.